sensor_id;sensor_type;location;lat;lon;timestamp;temperature;humidity
52621;DHT22;38515;53.160;6.990;2022-09-12T00:00:26;13.90;99.90
52621;DHT22;38515;53.160;6.990;2022-09-12T00:02:54;13.90;99.90
52621;DHT22;38515;53.160;6.990;2022-09-12T00:05:20;13.90;99.90
52621;DHT22;38515;53.160;6.990;2022-09-12T00:07:46;13.80;99.90
52621;DHT22;38515;53.160;6.990;2022-09-12T00:10:13;13.80;99.90
52621;DHT22;38515;53.160;6.990;2022-09-12T00:12:38;13.80;99.90
52621;DHT22;38515;53.160;6.990;2022-09-12T00:15:05;13.80;99.90
52621;DHT22;38515;53.160;6.990;2022-09-12T00:17:34;13.80;99.90
52621;DHT22;38515;53.160;6.990;2022-09-12T00:20:00;13.80;99.90
52621;DHT22;38515;53.160;6.990;2022-09-12T00:22:26;13.80;99.90
52621;DHT22;38515;53.160;6.990;2022-09-12T00:24:52;13.80;99.90
52621;DHT22;38515;53.160;6.990;2022-09-12T00:27:18;13.70;99.90
52621;DHT22;38515;53.160;6.990;2022-09-12T00:29:44;13.70;99.90
52621;DHT22;38515;53.160;6.990;2022-09-12T00:32:10;13.80;99.90
52621;DHT22;38515;53.160;6.990;2022-09-12T00:34:35;13.80;99.90
52621;DHT22;38515;53.160;6.990;2022-09-12T00:37:02;13.80;99.90
52621;DHT22;38515;53.160;6.990;2022-09-12T00:39:28;13.70;99.90
52621;DHT22;38515;53.160;6.990;2022-09-12T00:41:54;13.70;99.90
52621;DHT22;38515;53.160;6.990;2022-09-12T00:46:51;13.70;99.90
52621;DHT22;38515;53.160;6.990;2022-09-12T00:51:55;13.50;99.90
52621;DHT22;38515;53.160;6.990;2022-09-12T00:54:25;13.40;99.90
52621;DHT22;38515;53.160;6.990;2022-09-12T00:56:55;13.30;99.90
52621;DHT22;38515;53.160;6.990;2022-09-12T00:59:28;13.20;99.90
52621;DHT22;38515;53.160;6.990;2022-09-12T01:01:56;13.20;99.90
52621;DHT22;38515;53.160;6.990;2022-09-12T01:04:23;13.10;99.90
52621;DHT22;38515;53.160;6.990;2022-09-12T01:06:51;13.10;99.90
52621;DHT22;38515;53.160;6.990;2022-09-12T01:09:19;13.10;99.90
52621;DHT22;38515;53.160;6.990;2022-09-12T01:11:46;13.10;99.90
52621;DHT22;38515;53.160;6.990;2022-09-12T01:14:14;13.10;99.90
52621;DHT22;38515;53.160;6.990;2022-09-12T01:16:41;13.10;99.90
52621;DHT22;38515;53.160;6.990;2022-09-12T01:22:21;13.00;99.90
52621;DHT22;38515;53.160;6.990;2022-09-12T01:25:09;12.90;99.90
52621;DHT22;38515;53.160;6.990;2022-09-12T01:27:43;12.80;99.90
52621;DHT22;38515;53.160;6.990;2022-09-12T01:32:58;12.80;99.90
52621;DHT22;38515;53.160;6.990;2022-09-12T01:35:43;12.80;99.90
52621;DHT22;38515;53.160;6.990;2022-09-12T01:38:19;12.80;99.90
52621;DHT22;38515;53.160;6.990;2022-09-12T01:41:00;12.80;99.90
52621;DHT22;38515;53.160;6.990;2022-09-12T01:43:34;12.80;99.90
52621;DHT22;38515;53.160;6.990;2022-09-12T01:46:06;12.80;99.90
52621;DHT22;38515;53.160;6.990;2022-09-12T01:48:39;12.80;99.90
52621;DHT22;38515;53.160;6.990;2022-09-12T01:51:21;12.80;99.90
52621;DHT22;38515;53.160;6.990;2022-09-12T01:53:52;12.80;99.90
52621;DHT22;38515;53.160;6.990;2022-09-12T01:56:24;12.80;99.90
52621;DHT22;38515;53.160;6.990;2022-09-12T01:59:00;12.80;99.90
52621;DHT22;38515;53.160;6.990;2022-09-12T02:01:31;12.80;99.90
52621;DHT22;38515;53.160;6.990;2022-09-12T02:06:35;12.80;99.90
52621;DHT22;38515;53.160;6.990;2022-09-12T02:09:11;12.80;99.90
52621;DHT22;38515;53.160;6.990;2022-09-12T02:11:42;12.80;99.90
52621;DHT22;38515;53.160;6.990;2022-09-12T02:14:14;12.80;99.90
52621;DHT22;38515;53.160;6.990;2022-09-12T02:16:45;12.80;99.90
52621;DHT22;38515;53.160;6.990;2022-09-12T02:19:16;12.70;99.90
52621;DHT22;38515;53.160;6.990;2022-09-12T02:21:51;12.70;99.90
52621;DHT22;38515;53.160;6.990;2022-09-12T02:24:18;12.70;99.90
52621;DHT22;38515;53.160;6.990;2022-09-12T02:26:49;12.70;99.90
52621;DHT22;38515;53.160;6.990;2022-09-12T02:29:17;12.70;99.90
52621;DHT22;38515;53.160;6.990;2022-09-12T02:31:48;12.70;99.90
52621;DHT22;38515;53.160;6.990;2022-09-12T02:34:31;12.70;99.90
52621;DHT22;38515;53.160;6.990;2022-09-12T02:37:25;12.70;99.90
52621;DHT22;38515;53.160;6.990;2022-09-12T02:39:57;12.70;99.90
52621;DHT22;38515;53.160;6.990;2022-09-12T02:42:24;12.70;99.90
52621;DHT22;38515;53.160;6.990;2022-09-12T02:44:53;12.70;99.90
52621;DHT22;38515;53.160;6.990;2022-09-12T02:47:26;12.70;99.90
52621;DHT22;38515;53.160;6.990;2022-09-12T02:49:53;12.70;99.90
52621;DHT22;38515;53.160;6.990;2022-09-12T02:52:20;12.70;99.90
52621;DHT22;38515;53.160;6.990;2022-09-12T02:54:46;12.60;99.90
52621;DHT22;38515;53.160;6.990;2022-09-12T02:57:16;12.60;99.90
52621;DHT22;38515;53.160;6.990;2022-09-12T02:59:42;12.60;99.90
52621;DHT22;38515;53.160;6.990;2022-09-12T03:04:58;12.50;99.90
52621;DHT22;38515;53.160;6.990;2022-09-12T03:10:27;12.50;99.90
52621;DHT22;38515;53.160;6.990;2022-09-12T03:15:43;12.40;99.90
52621;DHT22;38515;53.160;6.990;2022-09-12T03:21:27;12.40;99.90
52621;DHT22;38515;53.160;6.990;2022-09-12T03:26:43;12.40;99.90
52621;DHT22;38515;53.160;6.990;2022-09-12T03:29:12;12.40;99.90
52621;DHT22;38515;53.160;6.990;2022-09-12T03:31:48;12.40;99.90
52621;DHT22;38515;53.160;6.990;2022-09-12T03:34:14;12.40;99.90
52621;DHT22;38515;53.160;6.990;2022-09-12T03:36:40;12.30;99.90
52621;DHT22;38515;53.160;6.990;2022-09-12T03:39:06;12.30;99.90
52621;DHT22;38515;53.160;6.990;2022-09-12T03:41:32;12.30;99.90
52621;DHT22;38515;53.160;6.990;2022-09-12T03:43:58;12.30;99.90
52621;DHT22;38515;53.160;6.990;2022-09-12T03:46:24;12.30;99.90
52621;DHT22;38515;53.160;6.990;2022-09-12T03:48:49;12.30;99.90
52621;DHT22;38515;53.160;6.990;2022-09-12T03:51:15;12.30;99.90
52621;DHT22;38515;53.160;6.990;2022-09-12T03:53:41;12.20;99.90
52621;DHT22;38515;53.160;6.990;2022-09-12T03:56:08;12.20;99.90
52621;DHT22;38515;53.160;6.990;2022-09-12T03:58:35;12.20;99.90
52621;DHT22;38515;53.160;6.990;2022-09-12T04:01:08;12.20;99.90
52621;DHT22;38515;53.160;6.990;2022-09-12T04:03:40;12.20;99.90
52621;DHT22;38515;53.160;6.990;2022-09-12T04:06:08;12.20;99.90
52621;DHT22;38515;53.160;6.990;2022-09-12T04:08:35;12.10;99.90
52621;DHT22;38515;53.160;6.990;2022-09-12T04:11:07;12.10;99.90
52621;DHT22;38515;53.160;6.990;2022-09-12T04:13:34;12.20;99.90
52621;DHT22;38515;53.160;6.990;2022-09-12T04:16:00;12.20;99.90
52621;DHT22;38515;53.160;6.990;2022-09-12T04:18:27;12.20;99.90
52621;DHT22;38515;53.160;6.990;2022-09-12T04:20:53;12.20;99.90
52621;DHT22;38515;53.160;6.990;2022-09-12T04:23:19;12.20;99.90
52621;DHT22;38515;53.160;6.990;2022-09-12T04:25:53;12.10;99.90
52621;DHT22;38515;53.160;6.990;2022-09-12T04:28:19;12.20;99.90
52621;DHT22;38515;53.160;6.990;2022-09-12T04:30:45;12.10;99.90
52621;DHT22;38515;53.160;6.990;2022-09-12T04:33:11;12.10;99.90
52621;DHT22;38515;53.160;6.990;2022-09-12T04:35:37;12.10;99.90
52621;DHT22;38515;53.160;6.990;2022-09-12T04:38:02;12.10;99.90
52621;DHT22;38515;53.160;6.990;2022-09-12T04:40:29;12.00;99.90
52621;DHT22;38515;53.160;6.990;2022-09-12T04:42:56;12.00;99.90
52621;DHT22;38515;53.160;6.990;2022-09-12T04:45:21;12.10;99.90
52621;DHT22;38515;53.160;6.990;2022-09-12T04:47:48;12.10;99.90
52621;DHT22;38515;53.160;6.990;2022-09-12T04:50:13;12.10;99.90
52621;DHT22;38515;53.160;6.990;2022-09-12T04:52:40;12.10;99.90
52621;DHT22;38515;53.160;6.990;2022-09-12T04:55:07;12.10;99.90
52621;DHT22;38515;53.160;6.990;2022-09-12T04:57:34;12.20;99.90
52621;DHT22;38515;53.160;6.990;2022-09-12T05:00:01;12.20;99.90
52621;DHT22;38515;53.160;6.990;2022-09-12T05:02:29;12.20;99.90
52621;DHT22;38515;53.160;6.990;2022-09-12T05:04:55;12.20;99.90
52621;DHT22;38515;53.160;6.990;2022-09-12T05:07:20;12.20;99.90
52621;DHT22;38515;53.160;6.990;2022-09-12T05:09:46;12.20;99.90
52621;DHT22;38515;53.160;6.990;2022-09-12T05:12:12;12.20;99.90
52621;DHT22;38515;53.160;6.990;2022-09-12T05:14:39;12.20;99.90
52621;DHT22;38515;53.160;6.990;2022-09-12T05:17:05;12.20;99.90
52621;DHT22;38515;53.160;6.990;2022-09-12T05:19:31;12.20;99.90
52621;DHT22;38515;53.160;6.990;2022-09-12T05:21:57;12.30;99.90
52621;DHT22;38515;53.160;6.990;2022-09-12T05:24:24;12.30;99.90
52621;DHT22;38515;53.160;6.990;2022-09-12T05:26:49;12.40;99.90
52621;DHT22;38515;53.160;6.990;2022-09-12T05:29:15;12.40;99.90
52621;DHT22;38515;53.160;6.990;2022-09-12T05:31:41;12.50;99.90
52621;DHT22;38515;53.160;6.990;2022-09-12T05:34:07;12.60;99.90
52621;DHT22;38515;53.160;6.990;2022-09-12T05:36:35;12.60;99.90
52621;DHT22;38515;53.160;6.990;2022-09-12T05:39:03;12.70;99.90
52621;DHT22;38515;53.160;6.990;2022-09-12T05:41:30;12.80;99.90
52621;DHT22;38515;53.160;6.990;2022-09-12T05:44:01;12.80;99.90
52621;DHT22;38515;53.160;6.990;2022-09-12T05:46:30;12.90;99.90
52621;DHT22;38515;53.160;6.990;2022-09-12T05:49:00;13.00;99.90
52621;DHT22;38515;53.160;6.990;2022-09-12T05:51:29;13.00;99.90
52621;DHT22;38515;53.160;6.990;2022-09-12T05:53:58;13.10;99.90
52621;DHT22;38515;53.160;6.990;2022-09-12T05:56:27;13.20;99.90
52621;DHT22;38515;53.160;6.990;2022-09-12T05:58:56;13.30;99.90
52621;DHT22;38515;53.160;6.990;2022-09-12T06:01:22;13.40;99.90
52621;DHT22;38515;53.160;6.990;2022-09-12T06:03:51;13.40;99.90
52621;DHT22;38515;53.160;6.990;2022-09-12T06:06:19;13.50;99.90
52621;DHT22;38515;53.160;6.990;2022-09-12T06:08:47;13.60;99.90
52621;DHT22;38515;53.160;6.990;2022-09-12T06:11:16;13.70;99.90
52621;DHT22;38515;53.160;6.990;2022-09-12T06:13:43;13.70;99.90
52621;DHT22;38515;53.160;6.990;2022-09-12T06:16:12;13.80;99.90
52621;DHT22;38515;53.160;6.990;2022-09-12T06:18:39;14.90;99.90
52621;DHT22;38515;53.160;6.990;2022-09-12T06:21:08;13.90;99.90
52621;DHT22;38515;53.160;6.990;2022-09-12T06:23:34;13.90;99.90
52621;DHT22;38515;53.160;6.990;2022-09-12T06:26:01;14.00;99.90
52621;DHT22;38515;53.160;6.990;2022-09-12T06:28:29;14.00;99.90
52621;DHT22;38515;53.160;6.990;2022-09-12T06:31:08;14.00;99.90
52621;DHT22;38515;53.160;6.990;2022-09-12T06:33:35;14.10;99.90
52621;DHT22;38515;53.160;6.990;2022-09-12T06:38:29;14.20;99.90
52621;DHT22;38515;53.160;6.990;2022-09-12T06:40:55;14.20;99.90
52621;DHT22;38515;53.160;6.990;2022-09-12T06:43:21;14.30;99.90
52621;DHT22;38515;53.160;6.990;2022-09-12T06:45:48;14.40;99.90
52621;DHT22;38515;53.160;6.990;2022-09-12T06:48:14;14.50;99.90
52621;DHT22;38515;53.160;6.990;2022-09-12T06:50:40;14.50;99.90
52621;DHT22;38515;53.160;6.990;2022-09-12T06:53:06;14.60;99.90
52621;DHT22;38515;53.160;6.990;2022-09-12T06:55:32;14.70;99.90
52621;DHT22;38515;53.160;6.990;2022-09-12T06:57:58;14.80;99.90
52621;DHT22;38515;53.160;6.990;2022-09-12T07:00:24;14.80;99.90
52621;DHT22;38515;53.160;6.990;2022-09-12T07:02:53;14.90;99.90
52621;DHT22;38515;53.160;6.990;2022-09-12T07:05:21;15.00;99.90
52621;DHT22;38515;53.160;6.990;2022-09-12T07:07:47;15.00;99.90
52621;DHT22;38515;53.160;6.990;2022-09-12T07:10:13;15.00;99.90
52621;DHT22;38515;53.160;6.990;2022-09-12T07:12:39;15.10;99.90
52621;DHT22;38515;53.160;6.990;2022-09-12T07:15:05;15.10;99.90
52621;DHT22;38515;53.160;6.990;2022-09-12T07:17:31;15.10;99.90
52621;DHT22;38515;53.160;6.990;2022-09-12T07:19:57;15.20;99.90
52621;DHT22;38515;53.160;6.990;2022-09-12T07:22:23;15.20;99.90
52621;DHT22;38515;53.160;6.990;2022-09-12T07:24:48;15.30;99.90
52621;DHT22;38515;53.160;6.990;2022-09-12T07:27:15;15.40;99.90
52621;DHT22;38515;53.160;6.990;2022-09-12T07:29:41;15.40;99.90
52621;DHT22;38515;53.160;6.990;2022-09-12T07:32:07;15.40;99.90
52621;DHT22;38515;53.160;6.990;2022-09-12T07:34:33;15.50;99.90
52621;DHT22;38515;53.160;6.990;2022-09-12T07:36:59;15.50;99.90
52621;DHT22;38515;53.160;6.990;2022-09-12T07:39:25;15.60;99.90
52621;DHT22;38515;53.160;6.990;2022-09-12T07:41:51;15.60;99.90
52621;DHT22;38515;53.160;6.990;2022-09-12T07:44:16;15.70;99.90
52621;DHT22;38515;53.160;6.990;2022-09-12T07:46:42;15.70;99.90
52621;DHT22;38515;53.160;6.990;2022-09-12T07:49:10;15.70;99.90
52621;DHT22;38515;53.160;6.990;2022-09-12T07:51:36;15.80;99.90
52621;DHT22;38515;53.160;6.990;2022-09-12T07:54:07;15.90;99.90
52621;DHT22;38515;53.160;6.990;2022-09-12T07:56:33;16.00;99.90
52621;DHT22;38515;53.160;6.990;2022-09-12T07:58:59;16.10;99.90
52621;DHT22;38515;53.160;6.990;2022-09-12T08:01:25;16.20;99.90
52621;DHT22;38515;53.160;6.990;2022-09-12T08:03:55;16.30;99.90
52621;DHT22;38515;53.160;6.990;2022-09-12T08:06:23;16.40;99.90
52621;DHT22;38515;53.160;6.990;2022-09-12T08:08:50;16.50;99.90
52621;DHT22;38515;53.160;6.990;2022-09-12T08:11:17;16.60;99.90
52621;DHT22;38515;53.160;6.990;2022-09-12T08:13:45;16.60;99.90
52621;DHT22;38515;53.160;6.990;2022-09-12T08:16:13;16.70;99.90
52621;DHT22;38515;53.160;6.990;2022-09-12T08:18:40;16.80;99.90
52621;DHT22;38515;53.160;6.990;2022-09-12T08:21:09;16.90;99.90
52621;DHT22;38515;53.160;6.990;2022-09-12T08:23:36;16.90;99.90
52621;DHT22;38515;53.160;6.990;2022-09-12T08:26:04;16.90;99.90
52621;DHT22;38515;53.160;6.990;2022-09-12T08:28:31;16.90;99.90
52621;DHT22;38515;53.160;6.990;2022-09-12T08:31:04;16.90;99.90
52621;DHT22;38515;53.160;6.990;2022-09-12T08:33:31;17.00;99.90
52621;DHT22;38515;53.160;6.990;2022-09-12T08:36:14;17.00;99.90
52621;DHT22;38515;53.160;6.990;2022-09-12T08:38:42;17.10;99.90
52621;DHT22;38515;53.160;6.990;2022-09-12T08:46:42;17.40;99.90
52621;DHT22;38515;53.160;6.990;2022-09-12T08:49:12;17.50;99.90
52621;DHT22;38515;53.160;6.990;2022-09-12T08:51:40;17.60;99.90
52621;DHT22;38515;53.160;6.990;2022-09-12T08:54:21;17.70;99.90
52621;DHT22;38515;53.160;6.990;2022-09-12T08:56:48;17.70;99.90
52621;DHT22;38515;53.160;6.990;2022-09-12T08:59:15;17.70;99.90
52621;DHT22;38515;53.160;6.990;2022-09-12T09:01:43;17.80;99.90
52621;DHT22;38515;53.160;6.990;2022-09-12T09:04:36;17.80;99.90
52621;DHT22;38515;53.160;6.990;2022-09-12T09:07:24;17.80;99.90
52621;DHT22;38515;53.160;6.990;2022-09-12T09:12:49;17.90;99.90
52621;DHT22;38515;53.160;6.990;2022-09-12T09:18:20;18.10;99.90
52621;DHT22;38515;53.160;6.990;2022-09-12T09:20:59;18.20;99.90
52621;DHT22;38515;53.160;6.990;2022-09-12T09:23:33;18.30;99.90
52621;DHT22;38515;53.160;6.990;2022-09-12T09:26:16;18.30;99.90
52621;DHT22;38515;53.160;6.990;2022-09-12T09:28:48;18.40;99.90
52621;DHT22;38515;53.160;6.990;2022-09-12T09:31:18;18.40;99.90
52621;DHT22;38515;53.160;6.990;2022-09-12T09:33:48;18.50;99.90
52621;DHT22;38515;53.160;6.990;2022-09-12T09:36:20;18.60;99.90
52621;DHT22;38515;53.160;6.990;2022-09-12T09:38:56;18.70;99.90
52621;DHT22;38515;53.160;6.990;2022-09-12T09:41:32;18.80;99.90
52621;DHT22;38515;53.160;6.990;2022-09-12T09:44:00;18.90;99.90
52621;DHT22;38515;53.160;6.990;2022-09-12T09:46:27;18.70;99.90
52621;DHT22;38515;53.160;6.990;2022-09-12T09:48:53;19.00;99.90
52621;DHT22;38515;53.160;6.990;2022-09-12T09:51:28;19.00;99.90
52621;DHT22;38515;53.160;6.990;2022-09-12T09:54:16;19.10;99.90
52621;DHT22;38515;53.160;6.990;2022-09-12T09:56:44;19.10;99.90
52621;DHT22;38515;53.160;6.990;2022-09-12T09:59:16;19.00;99.90
52621;DHT22;38515;53.160;6.990;2022-09-12T10:01:51;18.90;99.90
52621;DHT22;38515;53.160;6.990;2022-09-12T10:04:21;19.00;99.90
52621;DHT22;38515;53.160;6.990;2022-09-12T10:06:52;19.10;99.90
52621;DHT22;38515;53.160;6.990;2022-09-12T10:09:22;19.20;99.90
52621;DHT22;38515;53.160;6.990;2022-09-12T10:11:49;19.40;99.90
52621;DHT22;38515;53.160;6.990;2022-09-12T10:14:36;19.50;99.90
52621;DHT22;38515;53.160;6.990;2022-09-12T10:17:26;19.60;99.90
52621;DHT22;38515;53.160;6.990;2022-09-12T10:19:52;19.80;99.90
52621;DHT22;38515;53.160;6.990;2022-09-12T10:22:21;19.90;99.90
52621;DHT22;38515;53.160;6.990;2022-09-12T10:24:50;20.10;99.90
52621;DHT22;38515;53.160;6.990;2022-09-12T10:27:21;20.30;99.90
52621;DHT22;38515;53.160;6.990;2022-09-12T10:30:04;20.30;99.90
52621;DHT22;38515;53.160;6.990;2022-09-12T10:32:33;20.40;99.90
52621;DHT22;38515;53.160;6.990;2022-09-12T10:35:03;20.50;99.90
52621;DHT22;38515;53.160;6.990;2022-09-12T10:37:35;20.50;99.90
52621;DHT22;38515;53.160;6.990;2022-09-12T10:40:04;20.50;99.90
52621;DHT22;38515;53.160;6.990;2022-09-12T10:42:50;20.60;99.90
52621;DHT22;38515;53.160;6.990;2022-09-12T10:45:26;20.60;99.90
52621;DHT22;38515;53.160;6.990;2022-09-12T10:47:56;20.70;99.90
52621;DHT22;38515;53.160;6.990;2022-09-12T10:50:30;20.70;99.90
52621;DHT22;38515;53.160;6.990;2022-09-12T10:53:18;20.80;99.90
52621;DHT22;38515;53.160;6.990;2022-09-12T10:56:09;20.90;99.90
52621;DHT22;38515;53.160;6.990;2022-09-12T10:58:54;20.90;99.90
52621;DHT22;38515;53.160;6.990;2022-09-12T11:09:42;20.90;99.90
52621;DHT22;38515;53.160;6.990;2022-09-12T11:12:15;21.00;99.90
52621;DHT22;38515;53.160;6.990;2022-09-12T11:17:55;21.20;99.90
52621;DHT22;38515;53.160;6.990;2022-09-12T11:28:27;21.40;99.90
52621;DHT22;38515;53.160;6.990;2022-09-12T11:31:27;21.40;99.90
52621;DHT22;38515;53.160;6.990;2022-09-12T11:34:01;21.40;99.90
52621;DHT22;38515;53.160;6.990;2022-09-12T11:41:41;21.50;99.90
52621;DHT22;38515;53.160;6.990;2022-09-12T11:46:41;21.70;99.90
52621;DHT22;38515;53.160;6.990;2022-09-12T11:51:40;21.80;99.90
52621;DHT22;38515;53.160;6.990;2022-09-12T11:54:13;21.80;99.90
52621;DHT22;38515;53.160;6.990;2022-09-12T11:56:45;21.80;99.90
52621;DHT22;38515;53.160;6.990;2022-09-12T12:01:52;21.90;99.90
52621;DHT22;38515;53.160;6.990;2022-09-12T12:04:24;21.90;99.90
52621;DHT22;38515;53.160;6.990;2022-09-12T12:07:00;21.90;99.90
52621;DHT22;38515;53.160;6.990;2022-09-12T12:09:27;21.90;99.90
52621;DHT22;38515;53.160;6.990;2022-09-12T12:11:55;21.90;99.90
52621;DHT22;38515;53.160;6.990;2022-09-12T12:14:29;22.00;99.90
52621;DHT22;38515;53.160;6.990;2022-09-12T12:16:57;22.00;99.90
52621;DHT22;38515;53.160;6.990;2022-09-12T12:19:30;22.20;99.90
52621;DHT22;38515;53.160;6.990;2022-09-12T12:22:05;22.10;99.90
52621;DHT22;38515;53.160;6.990;2022-09-12T12:24:31;22.00;99.90
52621;DHT22;38515;53.160;6.990;2022-09-12T12:27:01;22.00;99.90
52621;DHT22;38515;53.160;6.990;2022-09-12T12:34:30;22.10;99.90
52621;DHT22;38515;53.160;6.990;2022-09-12T12:36:57;22.20;99.90
52621;DHT22;38515;53.160;6.990;2022-09-12T12:41:59;22.20;99.90
52621;DHT22;38515;53.160;6.990;2022-09-12T12:49:54;22.30;99.90
52621;DHT22;38515;53.160;6.990;2022-09-12T12:52:21;22.30;99.90
52621;DHT22;38515;53.160;6.990;2022-09-12T12:54:51;22.30;99.90
52621;DHT22;38515;53.160;6.990;2022-09-12T12:57:25;22.40;99.90
52621;DHT22;38515;53.160;6.990;2022-09-12T12:59:55;22.30;99.90
52621;DHT22;38515;53.160;6.990;2022-09-12T13:02:31;22.30;99.90
52621;DHT22;38515;53.160;6.990;2022-09-12T13:05:01;22.30;99.90
52621;DHT22;38515;53.160;6.990;2022-09-12T13:07:32;22.30;99.90
52621;DHT22;38515;53.160;6.990;2022-09-12T13:10:00;22.40;99.90
52621;DHT22;38515;53.160;6.990;2022-09-12T13:12:31;22.50;99.90
52621;DHT22;38515;53.160;6.990;2022-09-12T13:14:59;22.60;99.90
52621;DHT22;38515;53.160;6.990;2022-09-12T13:17:32;22.60;99.90
52621;DHT22;38515;53.160;6.990;2022-09-12T13:20:17;22.60;99.90
52621;DHT22;38515;53.160;6.990;2022-09-12T13:22:46;22.70;99.90
52621;DHT22;38515;53.160;6.990;2022-09-12T13:25:23;22.60;99.90
52621;DHT22;38515;53.160;6.990;2022-09-12T13:28:02;22.60;99.90
52621;DHT22;38515;53.160;6.990;2022-09-12T13:30:33;22.60;99.90
52621;DHT22;38515;53.160;6.990;2022-09-12T13:36:04;22.60;99.90
52621;DHT22;38515;53.160;6.990;2022-09-12T13:44:10;22.60;99.90
52621;DHT22;38515;53.160;6.990;2022-09-12T13:46:39;22.60;99.90
52621;DHT22;38515;53.160;6.990;2022-09-12T13:49:20;22.60;99.90
52621;DHT22;38515;53.160;6.990;2022-09-12T13:51:58;22.60;99.90
52621;DHT22;38515;53.160;6.990;2022-09-12T13:54:25;22.60;99.90
52621;DHT22;38515;53.160;6.990;2022-09-12T13:56:52;22.60;99.90
52621;DHT22;38515;53.160;6.990;2022-09-12T13:59:18;22.70;99.90
52621;DHT22;38515;53.160;6.990;2022-09-12T14:01:46;22.70;99.90
52621;DHT22;38515;53.160;6.990;2022-09-12T14:04:15;22.70;99.90
52621;DHT22;38515;53.160;6.990;2022-09-12T14:07:08;22.70;99.90
52621;DHT22;38515;53.160;6.990;2022-09-12T14:09:39;22.60;99.90
52621;DHT22;38515;53.160;6.990;2022-09-12T14:12:18;22.60;99.90
52621;DHT22;38515;53.160;6.990;2022-09-12T14:14:49;22.60;99.90
52621;DHT22;38515;53.160;6.990;2022-09-12T14:17:31;22.60;99.90
52621;DHT22;38515;53.160;6.990;2022-09-12T14:20:07;22.60;99.90
52621;DHT22;38515;53.160;6.990;2022-09-12T14:22:36;22.60;99.90
52621;DHT22;38515;53.160;6.990;2022-09-12T14:25:04;22.70;99.90
52621;DHT22;38515;53.160;6.990;2022-09-12T14:27:40;22.70;99.90
52621;DHT22;38515;53.160;6.990;2022-09-12T14:30:22;22.70;99.90
52621;DHT22;38515;53.160;6.990;2022-09-12T14:33:16;22.70;99.90
52621;DHT22;38515;53.160;6.990;2022-09-12T14:35:45;22.60;99.90
52621;DHT22;38515;53.160;6.990;2022-09-12T14:38:20;22.60;99.90
52621;DHT22;38515;53.160;6.990;2022-09-12T14:40:59;22.60;99.90
52621;DHT22;38515;53.160;6.990;2022-09-12T14:43:33;22.50;99.90
52621;DHT22;38515;53.160;6.990;2022-09-12T14:46:02;22.50;99.90
52621;DHT22;38515;53.160;6.990;2022-09-12T14:48:32;22.50;99.90
52621;DHT22;38515;53.160;6.990;2022-09-12T14:50:59;22.40;99.90
52621;DHT22;38515;53.160;6.990;2022-09-12T14:53:32;22.40;99.90
52621;DHT22;38515;53.160;6.990;2022-09-12T14:56:09;22.40;99.90
52621;DHT22;38515;53.160;6.990;2022-09-12T14:58:35;22.30;99.90
52621;DHT22;38515;53.160;6.990;2022-09-12T15:01:20;22.30;99.90
52621;DHT22;38515;53.160;6.990;2022-09-12T15:06:28;22.20;99.90
52621;DHT22;38515;53.160;6.990;2022-09-12T15:08:56;22.20;99.90
52621;DHT22;38515;53.160;6.990;2022-09-12T15:11:23;22.10;99.90
52621;DHT22;38515;53.160;6.990;2022-09-12T15:13:49;22.10;99.90
52621;DHT22;38515;53.160;6.990;2022-09-12T15:16:15;22.10;99.90
52621;DHT22;38515;53.160;6.990;2022-09-12T15:18:41;22.10;99.90
52621;DHT22;38515;53.160;6.990;2022-09-12T15:21:11;22.20;99.90
52621;DHT22;38515;53.160;6.990;2022-09-12T15:23:44;22.20;99.90
52621;DHT22;38515;53.160;6.990;2022-09-12T15:26:15;22.20;99.90
52621;DHT22;38515;53.160;6.990;2022-09-12T15:28:41;22.20;99.90
52621;DHT22;38515;53.160;6.990;2022-09-12T15:33:38;22.20;99.90
52621;DHT22;38515;53.160;6.990;2022-09-12T15:36:13;22.20;99.90
52621;DHT22;38515;53.160;6.990;2022-09-12T15:38:39;22.30;99.90
52621;DHT22;38515;53.160;6.990;2022-09-12T15:41:10;22.30;99.90
52621;DHT22;38515;53.160;6.990;2022-09-12T15:43:36;22.40;99.90
52621;DHT22;38515;53.160;6.990;2022-09-12T15:46:02;22.40;99.90
52621;DHT22;38515;53.160;6.990;2022-09-12T15:48:31;22.40;99.90
52621;DHT22;38515;53.160;6.990;2022-09-12T15:50:57;22.40;99.90
52621;DHT22;38515;53.160;6.990;2022-09-12T15:53:26;22.40;99.90
52621;DHT22;38515;53.160;6.990;2022-09-12T15:55:52;22.40;99.90
52621;DHT22;38515;53.160;6.990;2022-09-12T15:58:18;22.40;99.90
52621;DHT22;38515;53.160;6.990;2022-09-12T16:00:44;22.30;99.90
52621;DHT22;38515;53.160;6.990;2022-09-12T16:03:22;22.20;99.90
52621;DHT22;38515;53.160;6.990;2022-09-12T16:05:48;22.20;99.90
52621;DHT22;38515;53.160;6.990;2022-09-12T16:08:14;22.10;99.90
52621;DHT22;38515;53.160;6.990;2022-09-12T16:10:42;22.00;99.90
52621;DHT22;38515;53.160;6.990;2022-09-12T16:13:08;22.00;99.90
52621;DHT22;38515;53.160;6.990;2022-09-12T16:15:34;22.00;99.90
52621;DHT22;38515;53.160;6.990;2022-09-12T16:18:00;22.00;99.90
52621;DHT22;38515;53.160;6.990;2022-09-12T16:20:26;22.00;99.90
52621;DHT22;38515;53.160;6.990;2022-09-12T16:22:52;22.00;99.90
52621;DHT22;38515;53.160;6.990;2022-09-12T16:25:18;22.10;99.90
52621;DHT22;38515;53.160;6.990;2022-09-12T16:27:44;22.10;99.90
52621;DHT22;38515;53.160;6.990;2022-09-12T16:30:10;22.20;99.90
52621;DHT22;38515;53.160;6.990;2022-09-12T16:32:36;22.10;99.90
52621;DHT22;38515;53.160;6.990;2022-09-12T16:35:02;22.10;99.90
52621;DHT22;38515;53.160;6.990;2022-09-12T16:37:28;22.10;99.90
52621;DHT22;38515;53.160;6.990;2022-09-12T16:39:55;22.00;99.90
52621;DHT22;38515;53.160;6.990;2022-09-12T16:42:23;22.00;99.90
52621;DHT22;38515;53.160;6.990;2022-09-12T16:44:49;21.90;99.90
52621;DHT22;38515;53.160;6.990;2022-09-12T16:47:15;21.90;99.90
52621;DHT22;38515;53.160;6.990;2022-09-12T16:49:40;21.80;99.90
52621;DHT22;38515;53.160;6.990;2022-09-12T16:52:06;21.70;99.90
52621;DHT22;38515;53.160;6.990;2022-09-12T16:54:32;21.60;99.90
52621;DHT22;38515;53.160;6.990;2022-09-12T16:56:58;21.50;99.90
52621;DHT22;38515;53.160;6.990;2022-09-12T16:59:25;21.30;99.90
52621;DHT22;38515;53.160;6.990;2022-09-12T17:01:51;21.20;99.90
52621;DHT22;38515;53.160;6.990;2022-09-12T17:04:18;21.10;99.90
52621;DHT22;38515;53.160;6.990;2022-09-12T17:06:44;21.00;99.90
52621;DHT22;38515;53.160;6.990;2022-09-12T17:09:10;20.80;99.90
52621;DHT22;38515;53.160;6.990;2022-09-12T17:11:41;20.70;99.90
52621;DHT22;38515;53.160;6.990;2022-09-12T17:14:07;20.70;99.90
52621;DHT22;38515;53.160;6.990;2022-09-12T17:16:36;20.60;99.90
52621;DHT22;38515;53.160;6.990;2022-09-12T17:19:03;20.50;99.90
52621;DHT22;38515;53.160;6.990;2022-09-12T17:21:29;20.40;99.90
52621;DHT22;38515;53.160;6.990;2022-09-12T17:23:55;20.30;99.90
52621;DHT22;38515;53.160;6.990;2022-09-12T17:26:21;20.20;99.90